sensor_id;sensor_type;location;lat;lon;timestamp;temperature;humidity
9399;DHT22;4739;49.334;8.792;2023-02-07T00:00:08;2.60;99.90
9399;DHT22;4739;49.334;8.792;2023-02-07T00:02:35;2.50;99.90
9399;DHT22;4739;49.334;8.792;2023-02-07T00:05:00;2.50;99.90
9399;DHT22;4739;49.334;8.792;2023-02-07T00:07:26;2.50;99.90
9399;DHT22;4739;49.334;8.792;2023-02-07T00:09:52;2.50;99.90
9399;DHT22;4739;49.334;8.792;2023-02-07T00:12:18;2.50;99.90
9399;DHT22;4739;49.334;8.792;2023-02-07T00:14:43;2.40;99.90
9399;DHT22;4739;49.334;8.792;2023-02-07T00:17:09;2.40;99.90
9399;DHT22;4739;49.334;8.792;2023-02-07T00:19:35;2.40;99.90
9399;DHT22;4739;49.334;8.792;2023-02-07T00:22:00;2.40;99.90
9399;DHT22;4739;49.334;8.792;2023-02-07T00:24:26;2.30;99.90
9399;DHT22;4739;49.334;8.792;2023-02-07T00:26:51;2.40;99.90
9399;DHT22;4739;49.334;8.792;2023-02-07T00:29:20;2.40;99.90
9399;DHT22;4739;49.334;8.792;2023-02-07T00:31:47;2.40;99.90
9399;DHT22;4739;49.334;8.792;2023-02-07T00:34:13;2.40;99.90
9399;DHT22;4739;49.334;8.792;2023-02-07T00:36:39;2.50;99.90
9399;DHT22;4739;49.334;8.792;2023-02-07T00:39:10;2.50;99.90
9399;DHT22;4739;49.334;8.792;2023-02-07T00:41:36;2.50;99.90
9399;DHT22;4739;49.334;8.792;2023-02-07T00:44:03;2.50;99.90
9399;DHT22;4739;49.334;8.792;2023-02-07T00:46:28;2.50;99.90
9399;DHT22;4739;49.334;8.792;2023-02-07T00:48:54;2.40;99.90
9399;DHT22;4739;49.334;8.792;2023-02-07T00:51:20;2.40;99.90
9399;DHT22;4739;49.334;8.792;2023-02-07T00:53:46;2.50;99.90
9399;DHT22;4739;49.334;8.792;2023-02-07T00:56:13;2.30;99.90
9399;DHT22;4739;49.334;8.792;2023-02-07T00:58:39;2.40;99.90
9399;DHT22;4739;49.334;8.792;2023-02-07T01:01:04;2.40;99.90
9399;DHT22;4739;49.334;8.792;2023-02-07T01:03:30;2.40;99.90
9399;DHT22;4739;49.334;8.792;2023-02-07T01:05:56;2.40;99.90
9399;DHT22;4739;49.334;8.792;2023-02-07T01:08:21;2.20;99.90
9399;DHT22;4739;49.334;8.792;2023-02-07T01:10:47;2.10;99.90
9399;DHT22;4739;49.334;8.792;2023-02-07T01:13:14;2.10;99.90
9399;DHT22;4739;49.334;8.792;2023-02-07T01:15:43;2.10;99.90
9399;DHT22;4739;49.334;8.792;2023-02-07T01:18:09;2.00;99.90
9399;DHT22;4739;49.334;8.792;2023-02-07T01:20:35;2.00;99.90
9399;DHT22;4739;49.334;8.792;2023-02-07T01:23:02;2.00;99.90
9399;DHT22;4739;49.334;8.792;2023-02-07T01:25:28;1.90;99.90
9399;DHT22;4739;49.334;8.792;2023-02-07T01:27:54;1.90;99.90
9399;DHT22;4739;49.334;8.792;2023-02-07T01:30:19;1.90;99.90
9399;DHT22;4739;49.334;8.792;2023-02-07T01:32:45;1.80;99.90
9399;DHT22;4739;49.334;8.792;2023-02-07T01:35:10;1.70;99.90
9399;DHT22;4739;49.334;8.792;2023-02-07T01:37:36;1.80;99.90
9399;DHT22;4739;49.334;8.792;2023-02-07T01:40:02;1.70;99.90
9399;DHT22;4739;49.334;8.792;2023-02-07T01:42:28;1.60;99.90
9399;DHT22;4739;49.334;8.792;2023-02-07T01:45:00;1.50;99.90
9399;DHT22;4739;49.334;8.792;2023-02-07T01:47:26;1.50;99.90
9399;DHT22;4739;49.334;8.792;2023-02-07T01:49:55;1.50;99.90
9399;DHT22;4739;49.334;8.792;2023-02-07T01:52:27;1.50;99.90
9399;DHT22;4739;49.334;8.792;2023-02-07T01:54:56;1.50;99.90
9399;DHT22;4739;49.334;8.792;2023-02-07T01:57:23;1.50;99.90
9399;DHT22;4739;49.334;8.792;2023-02-07T01:59:51;1.40;99.90
9399;DHT22;4739;49.334;8.792;2023-02-07T02:02:20;1.30;99.90
9399;DHT22;4739;49.334;8.792;2023-02-07T02:04:47;1.30;99.90
9399;DHT22;4739;49.334;8.792;2023-02-07T02:07:14;1.30;99.90
9399;DHT22;4739;49.334;8.792;2023-02-07T02:09:40;1.30;99.90
9399;DHT22;4739;49.334;8.792;2023-02-07T02:13:13;1.20;99.90
9399;DHT22;4739;49.334;8.792;2023-02-07T02:34:51;1.10;99.90
9399;DHT22;4739;49.334;8.792;2023-02-07T02:37:38;1.00;99.90
9399;DHT22;4739;49.334;8.792;2023-02-07T02:40:19;1.00;99.90
9399;DHT22;4739;49.334;8.792;2023-02-07T02:43:02;0.90;99.90
9399;DHT22;4739;49.334;8.792;2023-02-07T02:45:32;1.00;99.90
9399;DHT22;4739;49.334;8.792;2023-02-07T02:47:58;1.00;99.90
9399;DHT22;4739;49.334;8.792;2023-02-07T02:50:29;0.90;99.90
9399;DHT22;4739;49.334;8.792;2023-02-07T02:52:55;0.90;99.90
9399;DHT22;4739;49.334;8.792;2023-02-07T03:00:56;0.80;99.90
9399;DHT22;4739;49.334;8.792;2023-02-07T03:11:14;0.90;99.90
9399;DHT22;4739;49.334;8.792;2023-02-07T03:14:05;0.80;99.90
9399;DHT22;4739;49.334;8.792;2023-02-07T03:19:44;0.80;99.90
9399;DHT22;4739;49.334;8.792;2023-02-07T03:22:13;0.70;99.90
9399;DHT22;4739;49.334;8.792;2023-02-07T03:24:51;0.60;99.90
9399;DHT22;4739;49.334;8.792;2023-02-07T03:27:19;0.60;99.90
9399;DHT22;4739;49.334;8.792;2023-02-07T03:29:49;0.60;99.90
9399;DHT22;4739;49.334;8.792;2023-02-07T03:32:17;0.60;99.90
9399;DHT22;4739;49.334;8.792;2023-02-07T03:34:53;0.60;99.90
9399;DHT22;4739;49.334;8.792;2023-02-07T03:37:26;0.60;99.90
9399;DHT22;4739;49.334;8.792;2023-02-07T03:39:52;0.60;99.90
9399;DHT22;4739;49.334;8.792;2023-02-07T03:42:35;0.60;99.90
9399;DHT22;4739;49.334;8.792;2023-02-07T03:45:03;0.50;99.90
9399;DHT22;4739;49.334;8.792;2023-02-07T03:47:29;0.40;99.90
9399;DHT22;4739;49.334;8.792;2023-02-07T03:49:55;0.40;99.90
9399;DHT22;4739;49.334;8.792;2023-02-07T03:52:21;0.50;99.90
9399;DHT22;4739;49.334;8.792;2023-02-07T03:54:46;0.50;99.90
9399;DHT22;4739;49.334;8.792;2023-02-07T03:57:12;0.60;99.90
9399;DHT22;4739;49.334;8.792;2023-02-07T03:59:38;0.60;99.90
9399;DHT22;4739;49.334;8.792;2023-02-07T04:02:03;0.60;99.90
9399;DHT22;4739;49.334;8.792;2023-02-07T04:04:29;0.50;99.90
9399;DHT22;4739;49.334;8.792;2023-02-07T04:06:55;0.40;99.90
9399;DHT22;4739;49.334;8.792;2023-02-07T04:09:22;0.40;99.90
9399;DHT22;4739;49.334;8.792;2023-02-07T04:11:48;0.40;99.90
9399;DHT22;4739;49.334;8.792;2023-02-07T04:14:14;0.40;99.90
9399;DHT22;4739;49.334;8.792;2023-02-07T04:16:40;0.40;99.90
9399;DHT22;4739;49.334;8.792;2023-02-07T04:19:05;0.40;99.90
9399;DHT22;4739;49.334;8.792;2023-02-07T04:21:31;0.40;99.90
9399;DHT22;4739;49.334;8.792;2023-02-07T04:23:57;0.40;99.90
9399;DHT22;4739;49.334;8.792;2023-02-07T04:26:22;0.40;99.90
9399;DHT22;4739;49.334;8.792;2023-02-07T04:28:48;0.30;99.90
9399;DHT22;4739;49.334;8.792;2023-02-07T04:31:13;0.30;99.90
9399;DHT22;4739;49.334;8.792;2023-02-07T04:33:39;0.20;99.90
9399;DHT22;4739;49.334;8.792;2023-02-07T04:36:05;0.20;99.90
9399;DHT22;4739;49.334;8.792;2023-02-07T04:38:31;0.20;99.90
9399;DHT22;4739;49.334;8.792;2023-02-07T04:40:59;0.20;99.90
9399;DHT22;4739;49.334;8.792;2023-02-07T04:43:25;0.20;99.90
9399;DHT22;4739;49.334;8.792;2023-02-07T04:45:50;0.20;99.90
9399;DHT22;4739;49.334;8.792;2023-02-07T04:48:16;0.10;99.90
9399;DHT22;4739;49.334;8.792;2023-02-07T04:50:41;0.20;99.90
9399;DHT22;4739;49.334;8.792;2023-02-07T04:53:07;0.20;99.90
9399;DHT22;4739;49.334;8.792;2023-02-07T04:55:33;0.20;99.90
9399;DHT22;4739;49.334;8.792;2023-02-07T04:58:00;0.00;99.90
9399;DHT22;4739;49.334;8.792;2023-02-07T05:00:25;0.10;99.90
9399;DHT22;4739;49.334;8.792;2023-02-07T05:02:51;0.20;99.90
9399;DHT22;4739;49.334;8.792;2023-02-07T05:05:17;0.10;99.90
9399;DHT22;4739;49.334;8.792;2023-02-07T05:07:42;0.00;99.90
9399;DHT22;4739;49.334;8.792;2023-02-07T05:10:08;0.10;99.90
9399;DHT22;4739;49.334;8.792;2023-02-07T05:12:33;0.00;99.90
9399;DHT22;4739;49.334;8.792;2023-02-07T05:14:59;0.00;99.90
9399;DHT22;4739;49.334;8.792;2023-02-07T05:17:24;0.10;99.90
9399;DHT22;4739;49.334;8.792;2023-02-07T05:19:50;0.10;99.90
9399;DHT22;4739;49.334;8.792;2023-02-07T05:22:16;0.10;99.90
9399;DHT22;4739;49.334;8.792;2023-02-07T05:24:42;0.10;99.90
9399;DHT22;4739;49.334;8.792;2023-02-07T05:27:08;0.10;99.90
9399;DHT22;4739;49.334;8.792;2023-02-07T05:29:33;0.00;99.90
9399;DHT22;4739;49.334;8.792;2023-02-07T05:31:59;0.10;99.90
9399;DHT22;4739;49.334;8.792;2023-02-07T05:34:43;0.20;99.90
9399;DHT22;4739;49.334;8.792;2023-02-07T05:37:09;0.10;99.90
9399;DHT22;4739;49.334;8.792;2023-02-07T05:39:34;-0.10;99.90
9399;DHT22;4739;49.334;8.792;2023-02-07T05:42:00;-0.10;99.90
9399;DHT22;4739;49.334;8.792;2023-02-07T05:44:25;0.00;99.90
9399;DHT22;4739;49.334;8.792;2023-02-07T05:46:51;-0.10;99.90
9399;DHT22;4739;49.334;8.792;2023-02-07T05:49:16;-0.10;99.90
9399;DHT22;4739;49.334;8.792;2023-02-07T05:51:42;-0.10;99.90
9399;DHT22;4739;49.334;8.792;2023-02-07T05:54:07;0.00;99.90
9399;DHT22;4739;49.334;8.792;2023-02-07T05:56:33;0.00;99.90
9399;DHT22;4739;49.334;8.792;2023-02-07T05:58:58;-0.10;99.90
9399;DHT22;4739;49.334;8.792;2023-02-07T06:01:24;-0.20;99.90
9399;DHT22;4739;49.334;8.792;2023-02-07T06:03:49;-0.10;99.90
9399;DHT22;4739;49.334;8.792;2023-02-07T06:06:15;-0.10;99.90
9399;DHT22;4739;49.334;8.792;2023-02-07T06:08:41;-0.10;99.90
9399;DHT22;4739;49.334;8.792;2023-02-07T06:11:06;0.00;99.90
9399;DHT22;4739;49.334;8.792;2023-02-07T06:13:32;-0.10;99.90
9399;DHT22;4739;49.334;8.792;2023-02-07T06:15:57;-0.10;99.90
9399;DHT22;4739;49.334;8.792;2023-02-07T06:18:23;-0.10;99.90
9399;DHT22;4739;49.334;8.792;2023-02-07T06:20:50;-0.10;99.90
9399;DHT22;4739;49.334;8.792;2023-02-07T06:23:16;-0.10;99.90
9399;DHT22;4739;49.334;8.792;2023-02-07T06:25:41;-0.10;99.90
9399;DHT22;4739;49.334;8.792;2023-02-07T06:28:07;-0.10;99.90
9399;DHT22;4739;49.334;8.792;2023-02-07T06:30:32;-0.20;99.90
9399;DHT22;4739;49.334;8.792;2023-02-07T06:32:58;-0.20;99.90
9399;DHT22;4739;49.334;8.792;2023-02-07T06:35:24;-0.10;99.90
9399;DHT22;4739;49.334;8.792;2023-02-07T06:37:49;-0.20;99.90
9399;DHT22;4739;49.334;8.792;2023-02-07T06:40:15;-0.20;99.90
9399;DHT22;4739;49.334;8.792;2023-02-07T06:42:40;-0.10;99.90
9399;DHT22;4739;49.334;8.792;2023-02-07T06:45:06;-0.20;99.90
9399;DHT22;4739;49.334;8.792;2023-02-07T06:47:32;-0.20;99.90
9399;DHT22;4739;49.334;8.792;2023-02-07T06:49:58;-0.20;99.90
9399;DHT22;4739;49.334;8.792;2023-02-07T06:52:23;-0.20;99.90
9399;DHT22;4739;49.334;8.792;2023-02-07T06:54:49;-0.20;99.90
9399;DHT22;4739;49.334;8.792;2023-02-07T06:57:14;-0.20;99.90
9399;DHT22;4739;49.334;8.792;2023-02-07T06:59:40;-0.20;99.90
9399;DHT22;4739;49.334;8.792;2023-02-07T07:02:05;-0.30;99.90
9399;DHT22;4739;49.334;8.792;2023-02-07T07:04:31;-0.30;99.90
9399;DHT22;4739;49.334;8.792;2023-02-07T07:06:57;-0.30;99.90
9399;DHT22;4739;49.334;8.792;2023-02-07T07:09:22;-0.30;99.90
9399;DHT22;4739;49.334;8.792;2023-02-07T07:11:48;-0.30;99.90
9399;DHT22;4739;49.334;8.792;2023-02-07T07:14:13;-0.20;99.90
9399;DHT22;4739;49.334;8.792;2023-02-07T07:16:39;-0.30;99.90
9399;DHT22;4739;49.334;8.792;2023-02-07T07:19:07;-0.30;99.90
9399;DHT22;4739;49.334;8.792;2023-02-07T07:21:33;-0.30;99.90
9399;DHT22;4739;49.334;8.792;2023-02-07T07:23:58;-0.20;99.90
9399;DHT22;4739;49.334;8.792;2023-02-07T07:26:24;-0.30;99.90
9399;DHT22;4739;49.334;8.792;2023-02-07T07:28:49;-0.20;99.90
9399;DHT22;4739;49.334;8.792;2023-02-07T07:31:15;-0.20;99.90
9399;DHT22;4739;49.334;8.792;2023-02-07T07:33:41;-0.20;99.90
9399;DHT22;4739;49.334;8.792;2023-02-07T07:36:07;-0.20;99.90
9399;DHT22;4739;49.334;8.792;2023-02-07T07:38:33;-0.20;99.90
9399;DHT22;4739;49.334;8.792;2023-02-07T07:40:59;-0.30;99.90
9399;DHT22;4739;49.334;8.792;2023-02-07T07:43:25;-0.30;99.90
9399;DHT22;4739;49.334;8.792;2023-02-07T07:45:56;-0.20;99.90
9399;DHT22;4739;49.334;8.792;2023-02-07T07:48:22;-0.30;99.90
9399;DHT22;4739;49.334;8.792;2023-02-07T07:50:48;-0.20;99.90
9399;DHT22;4739;49.334;8.792;2023-02-07T07:53:14;-0.20;99.90
9399;DHT22;4739;49.334;8.792;2023-02-07T07:55:41;-0.20;99.90
9399;DHT22;4739;49.334;8.792;2023-02-07T07:58:06;-0.10;99.90
9399;DHT22;4739;49.334;8.792;2023-02-07T08:00:32;0.00;99.90
9399;DHT22;4739;49.334;8.792;2023-02-07T08:02:58;-0.10;99.90
9399;DHT22;4739;49.334;8.792;2023-02-07T08:05:24;0.00;99.90
9399;DHT22;4739;49.334;8.792;2023-02-07T08:07:49;0.00;99.90
9399;DHT22;4739;49.334;8.792;2023-02-07T08:10:15;0.10;99.90
9399;DHT22;4739;49.334;8.792;2023-02-07T08:12:41;0.10;99.90
9399;DHT22;4739;49.334;8.792;2023-02-07T08:15:07;0.20;99.90
9399;DHT22;4739;49.334;8.792;2023-02-07T08:17:34;0.30;99.90
9399;DHT22;4739;49.334;8.792;2023-02-07T08:19:59;0.20;99.90
9399;DHT22;4739;49.334;8.792;2023-02-07T08:22:25;0.30;99.90
9399;DHT22;4739;49.334;8.792;2023-02-07T08:24:51;0.30;99.90
9399;DHT22;4739;49.334;8.792;2023-02-07T08:27:16;0.40;99.90
9399;DHT22;4739;49.334;8.792;2023-02-07T08:29:42;0.30;99.90
9399;DHT22;4739;49.334;8.792;2023-02-07T08:32:07;0.40;99.90
9399;DHT22;4739;49.334;8.792;2023-02-07T08:34:33;0.50;99.90
9399;DHT22;4739;49.334;8.792;2023-02-07T08:37:06;0.50;99.90
9399;DHT22;4739;49.334;8.792;2023-02-07T08:39:35;0.60;99.90
9399;DHT22;4739;49.334;8.792;2023-02-07T08:42:02;0.70;99.90
9399;DHT22;4739;49.334;8.792;2023-02-07T08:44:30;0.80;99.90
9399;DHT22;4739;49.334;8.792;2023-02-07T08:46:56;0.90;99.90
9399;DHT22;4739;49.334;8.792;2023-02-07T08:49:22;1.00;99.90
9399;DHT22;4739;49.334;8.792;2023-02-07T08:51:47;1.00;99.90
9399;DHT22;4739;49.334;8.792;2023-02-07T08:54:13;1.20;99.90
9399;DHT22;4739;49.334;8.792;2023-02-07T08:56:38;1.30;99.90
9399;DHT22;4739;49.334;8.792;2023-02-07T08:59:04;1.20;99.90
9399;DHT22;4739;49.334;8.792;2023-02-07T09:03:58;1.20;99.90
9399;DHT22;4739;49.334;8.792;2023-02-07T09:06:24;1.00;99.90
9399;DHT22;4739;49.334;8.792;2023-02-07T09:08:49;1.20;99.90
9399;DHT22;4739;49.334;8.792;2023-02-07T09:11:15;1.30;99.90
9399;DHT22;4739;49.334;8.792;2023-02-07T09:13:42;1.40;99.90
9399;DHT22;4739;49.334;8.792;2023-02-07T09:16:11;1.60;99.90
9399;DHT22;4739;49.334;8.792;2023-02-07T09:18:37;1.60;99.90
9399;DHT22;4739;49.334;8.792;2023-02-07T09:21:03;1.80;99.90
9399;DHT22;4739;49.334;8.792;2023-02-07T09:23:29;1.70;99.90
9399;DHT22;4739;49.334;8.792;2023-02-07T09:26:00;2.00;99.90
9399;DHT22;4739;49.334;8.792;2023-02-07T09:28:26;2.10;99.90
9399;DHT22;4739;49.334;8.792;2023-02-07T09:30:52;2.10;99.90
9399;DHT22;4739;49.334;8.792;2023-02-07T09:33:18;2.20;99.90
9399;DHT22;4739;49.334;8.792;2023-02-07T09:35:45;2.30;99.90
9399;DHT22;4739;49.334;8.792;2023-02-07T09:38:21;2.50;99.90
9399;DHT22;4739;49.334;8.792;2023-02-07T09:40:49;2.70;99.90
9399;DHT22;4739;49.334;8.792;2023-02-07T09:46:32;2.90;99.90
9399;DHT22;4739;49.334;8.792;2023-02-07T09:51:35;2.80;99.90
9399;DHT22;4739;49.334;8.792;2023-02-07T09:54:05;2.90;99.90
9399;DHT22;4739;49.334;8.792;2023-02-07T09:56:34;3.00;99.90
9399;DHT22;4739;49.334;8.792;2023-02-07T10:01:44;3.30;99.90
9399;DHT22;4739;49.334;8.792;2023-02-07T10:04:28;3.40;99.90
9399;DHT22;4739;49.334;8.792;2023-02-07T10:06:57;3.30;99.90
9399;DHT22;4739;49.334;8.792;2023-02-07T10:09:29;3.30;99.90
9399;DHT22;4739;49.334;8.792;2023-02-07T10:20:29;3.60;99.90
9399;DHT22;4739;49.334;8.792;2023-02-07T10:23:17;3.70;99.90
9399;DHT22;4739;49.334;8.792;2023-02-07T10:26:53;3.80;99.90
9399;DHT22;4739;49.334;8.792;2023-02-07T10:31:38;3.80;99.90
9399;DHT22;4739;49.334;8.792;2023-02-07T10:34:14;3.90;99.90
9399;DHT22;4739;49.334;8.792;2023-02-07T10:36:48;3.90;99.90
9399;DHT22;4739;49.334;8.792;2023-02-07T10:39:30;4.00;99.90
9399;DHT22;4739;49.334;8.792;2023-02-07T10:41:57;4.10;99.90
9399;DHT22;4739;49.334;8.792;2023-02-07T10:44:24;4.00;99.90
9399;DHT22;4739;49.334;8.792;2023-02-07T10:47:01;4.10;99.90
9399;DHT22;4739;49.334;8.792;2023-02-07T10:49:31;4.10;99.90
9399;DHT22;4739;49.334;8.792;2023-02-07T10:54:55;4.00;99.90
9399;DHT22;4739;49.334;8.792;2023-02-07T10:57:21;4.20;99.90
9399;DHT22;4739;49.334;8.792;2023-02-07T10:59:47;4.20;99.90
9399;DHT22;4739;49.334;8.792;2023-02-07T11:02:39;4.40;99.90
9399;DHT22;4739;49.334;8.792;2023-02-07T11:07:55;4.40;99.90
9399;DHT22;4739;49.334;8.792;2023-02-07T11:10:28;4.60;99.90
9399;DHT22;4739;49.334;8.792;2023-02-07T11:12:58;4.80;99.90
9399;DHT22;4739;49.334;8.792;2023-02-07T11:15:35;4.90;99.90
9399;DHT22;4739;49.334;8.792;2023-02-07T11:18:02;5.00;99.90
9399;DHT22;4739;49.334;8.792;2023-02-07T11:20:33;4.90;99.90
9399;DHT22;4739;49.334;8.792;2023-02-07T11:23:04;4.80;99.90
9399;DHT22;4739;49.334;8.792;2023-02-07T11:25:42;4.80;99.90
9399;DHT22;4739;49.334;8.792;2023-02-07T11:28:20;4.80;99.90
9399;DHT22;4739;49.334;8.792;2023-02-07T11:30:55;4.90;99.90
9399;DHT22;4739;49.334;8.792;2023-02-07T11:33:25;4.90;99.90
9399;DHT22;4739;49.334;8.792;2023-02-07T11:36:19;5.00;99.90
9399;DHT22;4739;49.334;8.792;2023-02-07T11:38:54;5.00;99.90
9399;DHT22;4739;49.334;8.792;2023-02-07T11:41:23;5.10;99.90
9399;DHT22;4739;49.334;8.792;2023-02-07T11:43:56;5.00;99.90
9399;DHT22;4739;49.334;8.792;2023-02-07T11:46:33;4.90;99.90
9399;DHT22;4739;49.334;8.792;2023-02-07T11:48:59;5.10;99.90
9399;DHT22;4739;49.334;8.792;2023-02-07T11:51:25;5.20;99.90
9399;DHT22;4739;49.334;8.792;2023-02-07T11:54:00;5.20;99.90
9399;DHT22;4739;49.334;8.792;2023-02-07T11:58:56;5.50;99.90
9399;DHT22;4739;49.334;8.792;2023-02-07T12:04:06;5.50;99.90
9399;DHT22;4739;49.334;8.792;2023-02-07T12:06:38;5.60;99.90
9399;DHT22;4739;49.334;8.792;2023-02-07T12:09:17;5.60;99.90
9399;DHT22;4739;49.334;8.792;2023-02-07T12:11:44;5.90;99.90
9399;DHT22;4739;49.334;8.792;2023-02-07T12:14:21;6.10;99.90
9399;DHT22;4739;49.334;8.792;2023-02-07T12:16:52;6.20;99.90
9399;DHT22;4739;49.334;8.792;2023-02-07T12:19:30;6.30;99.90
9399;DHT22;4739;49.334;8.792;2023-02-07T12:22:09;6.40;99.90
9399;DHT22;4739;49.334;8.792;2023-02-07T12:24:41;6.20;99.90
9399;DHT22;4739;49.334;8.792;2023-02-07T12:43:00;6.20;99.90
9399;DHT22;4739;49.334;8.792;2023-02-07T13:01:41;6.30;99.90
9399;DHT22;4739;49.334;8.792;2023-02-07T13:07:08;6.00;99.90
9399;DHT22;4739;49.334;8.792;2023-02-07T13:12:35;5.90;99.90
9399;DHT22;4739;49.334;8.792;2023-02-07T13:23:46;6.00;99.90
9399;DHT22;4739;49.334;8.792;2023-02-07T13:26:18;6.10;99.90
9399;DHT22;4739;49.334;8.792;2023-02-07T13:29:02;6.00;99.90
9399;DHT22;4739;49.334;8.792;2023-02-07T13:32:00;5.70;99.90
9399;DHT22;4739;49.334;8.792;2023-02-07T13:34:51;5.70;99.90
9399;DHT22;4739;49.334;8.792;2023-02-07T13:37:18;5.70;99.90
9399;DHT22;4739;49.334;8.792;2023-02-07T13:40:16;5.70;99.90
9399;DHT22;4739;49.334;8.792;2023-02-07T13:42:54;5.70;99.90
9399;DHT22;4739;49.334;8.792;2023-02-07T13:45:55;5.80;99.90
9399;DHT22;4739;49.334;8.792;2023-02-07T13:48:50;5.50;99.90
9399;DHT22;4739;49.334;8.792;2023-02-07T13:54:40;5.20;99.90
9399;DHT22;4739;49.334;8.792;2023-02-07T13:57:37;5.20;99.90
9399;DHT22;4739;49.334;8.792;2023-02-07T14:00:35;5.20;99.90
9399;DHT22;4739;49.334;8.792;2023-02-07T14:03:04;5.10;99.90
9399;DHT22;4739;49.334;8.792;2023-02-07T14:05:39;5.10;99.90
9399;DHT22;4739;49.334;8.792;2023-02-07T14:08:26;5.10;99.90
9399;DHT22;4739;49.334;8.792;2023-02-07T14:10:55;5.10;99.90
9399;DHT22;4739;49.334;8.792;2023-02-07T14:13:30;5.20;99.90
9399;DHT22;4739;49.334;8.792;2023-02-07T14:16:04;5.20;99.90
9399;DHT22;4739;49.334;8.792;2023-02-07T14:21:30;5.10;99.90
9399;DHT22;4739;49.334;8.792;2023-02-07T14:29:51;5.00;99.90
9399;DHT22;4739;49.334;8.792;2023-02-07T14:45:38;4.60;99.90
9399;DHT22;4739;49.334;8.792;2023-02-07T14:48:06;4.50;99.90
9399;DHT22;4739;49.334;8.792;2023-02-07T14:50:52;4.40;99.90
9399;DHT22;4739;49.334;8.792;2023-02-07T14:53:19;4.40;99.90
9399;DHT22;4739;49.334;8.792;2023-02-07T14:58:26;4.50;99.90
9399;DHT22;4739;49.334;8.792;2023-02-07T15:00:57;4.50;99.90
9399;DHT22;4739;49.334;8.792;2023-02-07T15:03:29;4.60;99.90
9399;DHT22;4739;49.334;8.792;2023-02-07T15:06:02;4.40;99.90
9399;DHT22;4739;49.334;8.792;2023-02-07T15:08:30;4.50;99.90
9399;DHT22;4739;49.334;8.792;2023-02-07T15:11:00;4.60;99.90
9399;DHT22;4739;49.334;8.792;2023-02-07T15:13:44;4.60;99.90
9399;DHT22;4739;49.334;8.792;2023-02-07T15:16:15;4.50;99.90
9399;DHT22;4739;49.334;8.792;2023-02-07T15:21:36;4.40;99.90
9399;DHT22;4739;49.334;8.792;2023-02-07T15:26:31;4.50;99.90
9399;DHT22;4739;49.334;8.792;2023-02-07T15:29:04;4.50;99.90
9399;DHT22;4739;49.334;8.792;2023-02-07T15:31:36;4.40;99.90
9399;DHT22;4739;49.334;8.792;2023-02-07T15:34:05;4.40;99.90
9399;DHT22;4739;49.334;8.792;2023-02-07T15:36:39;4.30;99.90
9399;DHT22;4739;49.334;8.792;2023-02-07T15:39:15;4.30;99.90
9399;DHT22;4739;49.334;8.792;2023-02-07T15:41:44;4.30;99.90
9399;DHT22;4739;49.334;8.792;2023-02-07T15:44:21;4.30;99.90
9399;DHT22;4739;49.334;8.792;2023-02-07T15:46:54;4.30;99.90
9399;DHT22;4739;49.334;8.792;2023-02-07T15:49:38;4.20;99.90
9399;DHT22;4739;49.334;8.792;2023-02-07T15:52:31;4.10;99.90
9399;DHT22;4739;49.334;8.792;2023-02-07T15:54:59;4.10;99.90
9399;DHT22;4739;49.334;8.792;2023-02-07T15:57:29;4.10;99.90
9399;DHT22;4739;49.334;8.792;2023-02-07T16:02:41;3.90;99.90
9399;DHT22;4739;49.334;8.792;2023-02-07T16:05:08;3.90;99.90
9399;DHT22;4739;49.334;8.792;2023-02-07T16:07:36;3.80;99.90
9399;DHT22;4739;49.334;8.792;2023-02-07T16:10:35;3.80;99.90
9399;DHT22;4739;49.334;8.792;2023-02-07T16:13:17;3.80;99.90
9399;DHT22;4739;49.334;8.792;2023-02-07T16:16:07;3.80;99.90
9399;DHT22;4739;49.334;8.792;2023-02-07T16:18:43;3.70;99.90
9399;DHT22;4739;49.334;8.792;2023-02-07T16:21:22;3.70;99.90
9399;DHT22;4739;49.334;8.792;2023-02-07T16:23:51;3.60;99.90
9399;DHT22;4739;49.334;8.792;2023-02-07T16:26:20;3.60;99.90
9399;DHT22;4739;49.334;8.792;2023-02-07T16:28:47;3.50;99.90
9399;DHT22;4739;49.334;8.792;2023-02-07T16:31:13;3.40;99.90
9399;DHT22;4739;49.334;8.792;2023-02-07T16:33:39;3.40;99.90
9399;DHT22;4739;49.334;8.792;2023-02-07T16:36:05;3.50;99.90
9399;DHT22;4739;49.334;8.792;2023-02-07T16:38:33;3.40;99.90
9399;DHT22;4739;49.334;8.792;2023-02-07T16:40:59;3.30;99.90
9399;DHT22;4739;49.334;8.792;2023-02-07T16:46:02;3.30;99.90
9399;DHT22;4739;49.334;8.792;2023-02-07T16:48:28;3.00;99.90
9399;DHT22;4739;49.334;8.792;2023-02-07T16:50:54;2.90;99.90
9399;DHT22;4739;49.334;8.792;2023-02-07T16:53:19;2.80;99.90
9399;DHT22;4739;49.334;8.792;2023-02-07T16:58:25;2.80;99.90
9399;DHT22;4739;49.334;8.792;2023-02-07T17:00:52;2.70;99.90
9399;DHT22;4739;49.334;8.792;2023-02-07T17:03:18;2.60;99.90
9399;DHT22;4739;49.334;8.792;2023-02-07T17:05:44;2.60;99.90
9399;DHT22;4739;49.334;8.792;2023-02-07T17:08:19;2.60;99.90
9399;DHT22;4739;49.334;8.792;2023-02-07T17:10:55;2.60;99.90
9399;DHT22;4739;49.334;8.792;2023-02-07T17:13:23;2.60;99.90
9399;DHT22;4739;49.334;8.792;2023-02-07T17:15:50;2.60;99.90
9399;DHT22;4739;49.334;8.792;2023-02-07T17:18:16;2.60;99.90
9399;DHT22;4739;49.334;8.792;2023-02-07T17:20:42;2.60;99.90
9399;DHT22;4739;49.334;8.792;2023-02-07T17:23:08;2.60;99.90
9399;DHT22;4739;49.334;8.792;2023-02-07T17:25:34;2.60;99.90
9399;DHT22;4739;49.334;8.792;2023-02-07T17:27:59;2.60;99.90
9399;DHT22;4739;49.334;8.792;2023-02-07T17:30:29;2.50;99.90
9399;DHT22;4739;49.334;8.792;2023-02-07T17:32:56;2.50;99.90
9399;DHT22;4739;49.334;8.792;2023-02-07T17:35:22;2.50;99.90
9399;DHT22;4739;49.334;8.792;2023-02-07T17:37:48;2.50;99.90
9399;DHT22;4739;49.334;8.792;2023-02-07T17:42:45;2.10;99.90
9399;DHT22;4739;49.334;8.792;2023-02-07T17:45:10;2.00;99.90
9399;DHT22;4739;49.334;8.792;2023-02-07T17:47:36;2.00;99.90
9399;DHT22;4739;49.334;8.792;2023-02-07T17:50:01;2.00;99.90
9399;DHT22;4739;49.334;8.792;2023-02-07T17:52:28;2.00;99.90
9399;DHT22;4739;49.334;8.792;2023-02-07T17:54:53;2.00;99.90
9399;DHT22;4739;49.334;8.792;2023-02-07T17:57:19;2.00;99.90
9399;DHT22;4739;49.334;8.792;2023-02-07T17:59:44;2.10;99.90
9399;DHT22;4739;49.334;8.792;2023-02-07T18:02:10;2.00;99.90
9399;DHT22;4739;49.334;8.792;2023-02-07T18:04:35;2.10;99.90
9399;DHT22;4739;49.334;8.792;2023-02-07T18:07:01;2.00;99.90
9399;DHT22;4739;49.334;8.792;2023-02-07T18:09:27;2.00;99.90
9399;DHT22;4739;49.334;8.792;2023-02-07T18:11:52;1.90;99.90
9399;DHT22;4739;49.334;8.792;2023-02-07T18:14:18;2.00;99.90
9399;DHT22;4739;49.334;8.792;2023-02-07T18:16:44;1.90;99.90
9399;DHT22;4739;49.334;8.792;2023-02-07T18:19:15;1.90;99.90
9399;DHT22;4739;49.334;8.792;2023-02-07T18:21:41;1.90;99.90
9399;DHT22;4739;49.334;8.792;2023-02-07T18:24:07;1.80;99.90
9399;DHT22;4739;49.334;8.792;2023-02-07T18:26:33;1.80;99.90
9399;DHT22;4739;49.334;8.792;2023-02-07T18:28:58;1.70;99.90
9399;DHT22;4739;49.334;8.792;2023-02-07T18:31:25;1.60;99.90
9399;DHT22;4739;49.334;8.792;2023-02-07T18:33:52;1.50;99.90
9399;DHT22;4739;49.334;8.792;2023-02-07T18:36:19;1.40;99.90
9399;DHT22;4739;49.334;8.792;2023-02-07T18:38:44;1.30;99.90
9399;DHT22;4739;49.334;8.792;2023-02-07T18:41:12;1.30;99.90
9399;DHT22;4739;49.334;8.792;2023-02-07T18:43:38;1.00;99.90
9399;DHT22;4739;49.334;8.792;2023-02-07T18:46:09;1.10;99.90
9399;DHT22;4739;49.334;8.792;2023-02-07T18:48:34;1.00;99.90
9399;DHT22;4739;49.334;8.792;2023-02-07T18:51:08;0.80;99.90
9399;DHT22;4739;49.334;8.792;2023-02-07T18:53:38;0.70;99.90
9399;DHT22;4739;49.334;8.792;2023-02-07T18:56:23;0.60;99.90
9399;DHT22;4739;49.334;8.792;2023-02-07T18:58:50;0.60;99.90
9399;DHT22;4739;49.334;8.792;2023-02-07T19:01:21;0.50;99.90
9399;DHT22;4739;49.334;8.792;2023-02-07T19:03:51;0.50;99.90
9399;DHT22;4739;49.334;8.792;2023-02-07T19:06:19;0.40;99.90